createdAt,value
2018-07-20T00:01:45.775Z,97219.47
2018-07-20T00:04:14.299Z,97225.69
2018-07-20T00:06:43.229Z,97224.05
2018-07-20T00:09:12.182Z,97219.72
2018-07-20T00:11:40.763Z,97213.30
2018-07-20T00:14:09.298Z,97215.52
2018-07-20T00:16:38.013Z,97216.94
2018-07-20T00:19:06.588Z,97217.10
2018-07-20T00:21:35.135Z,97217.20
2018-07-20T00:24:03.736Z,97212.80
2018-07-20T00:26:32.409Z,97208.70
2018-07-20T00:29:01.461Z,97211.28
2018-07-20T00:31:30.625Z,97211.56
2018-07-20T00:33:59.214Z,97204.77
2018-07-20T00:36:28.339Z,97204.78
2018-07-20T00:38:57.589Z,97203.41
2018-07-20T00:41:26.137Z,97196.28
2018-07-20T00:43:54.672Z,97193.81
2018-07-20T00:46:23.423Z,97189.59
2018-07-20T00:48:51.951Z,97189.02
2018-07-20T00:51:20.512Z,97184.70
2018-07-20T00:53:49.508Z,97187.38
2018-07-20T00:56:18.291Z,97186.92
2018-07-20T00:58:46.838Z,97191.37
2018-07-20T01:01:16.247Z,97185.64
2018-07-20T01:03:44.777Z,97188.81
2018-07-20T01:06:13.576Z,97181.33
2018-07-20T01:08:42.335Z,97176.51
2018-07-20T01:11:10.991Z,97172.56
2018-07-20T01:13:39.701Z,97177.47
2018-07-20T01:16:08.658Z,97176.44
2018-07-20T01:18:37.247Z,97176.91
2018-07-20T01:21:06.106Z,97177.23
2018-07-20T01:23:35.108Z,97180.17
2018-07-20T01:26:03.664Z,97177.12
2018-07-20T01:28:32.229Z,97169.06
2018-07-20T01:31:00.799Z,97165.44
2018-07-20T01:33:29.369Z,97171.64
2018-07-20T01:35:58.259Z,97170.22
2018-07-20T01:38:26.941Z,97164.96
2018-07-20T01:40:55.496Z,97162.28
2018-07-20T01:43:24.041Z,97159.48
2018-07-20T01:45:52.903Z,97162.98
2018-07-20T01:48:21.479Z,97159.95
2018-07-20T01:50:50.008Z,97156.20
2018-07-20T01:53:18.870Z,97167.66
2018-07-20T01:55:47.416Z,97166.08
2018-07-20T01:58:15.940Z,97167.95
2018-07-20T02:00:44.657Z,97168.86
2018-07-20T02:03:13.180Z,97170.15
2018-07-20T02:05:41.711Z,97162.20
2018-07-20T02:08:10.495Z,97159.88
2018-07-20T02:10:39.051Z,97162.20
2018-07-20T02:13:07.681Z,97160.78
2018-07-20T02:15:36.531Z,97163.63
2018-07-20T02:18:05.195Z,97157.94
2018-07-20T02:20:33.752Z,97158.87
2018-07-20T02:23:02.651Z,97160.28
2018-07-20T02:25:31.315Z,97163.17
2018-07-20T02:27:59.882Z,97159.98
2018-07-20T02:30:28.520Z,97162.25
2018-07-20T02:32:57.071Z,97162.67
2018-07-20T02:35:25.616Z,97163.83
2018-07-20T02:37:54.517Z,97155.80
2018-07-20T02:40:23.229Z,97155.91
2018-07-20T02:42:51.749Z,97156.48
2018-07-20T02:45:20.420Z,97156.97
2018-07-20T02:47:48.963Z,97156.63
2018-07-20T02:50:17.656Z,97154.19
2018-07-20T02:52:46.573Z,97159.32
2018-07-20T02:55:15.116Z,97158.09
2018-07-20T02:57:43.856Z,97154.38
2018-07-20T03:00:12.485Z,97153.30
2018-07-20T03:02:41.052Z,97154.39
2018-07-20T03:05:09.595Z,97159.84
2018-07-20T03:07:38.165Z,97156.09
2018-07-20T03:10:06.723Z,97157.08
2018-07-20T03:12:35.271Z,97156.41
2018-07-20T03:15:04.985Z,97157.52
2018-07-20T03:17:33.539Z,97151.98
2018-07-20T03:20:02.179Z,97153.63
2018-07-20T03:22:30.997Z,97150.27
2018-07-20T03:24:59.552Z,97150.67
2018-07-20T03:27:28.155Z,97152.25
2018-07-20T03:29:56.849Z,97145.14
2018-07-20T03:32:25.372Z,97145.20
2018-07-20T03:34:54.357Z,97144.27
2018-07-20T03:37:23.459Z,97144.05
2018-07-20T03:39:52.447Z,97137.13
2018-07-20T03:42:21.044Z,97138.73
2018-07-20T03:44:49.617Z,97140.60
2018-07-20T03:47:18.176Z,97137.23
2018-07-20T03:49:46.743Z,97136.53
2018-07-20T03:52:15.384Z,97133.18
2018-07-20T03:54:43.891Z,97139.68
2018-07-20T03:57:12.644Z,97134.59
2018-07-20T03:59:41.687Z,97142.37
2018-07-20T04:02:10.300Z,97133.30
2018-07-20T04:04:38.863Z,97134.92
2018-07-20T04:07:07.720Z,97126.73
2018-07-20T04:09:36.239Z,97131.47
2018-07-20T04:12:06.513Z,97136.78
2018-07-20T04:14:35.303Z,97139.95
2018-07-20T04:17:03.939Z,97137.73
2018-07-20T04:19:32.449Z,97140.78
2018-07-20T04:22:01.023Z,97131.38
2018-07-20T04:24:29.583Z,97138.15
2018-07-20T04:26:58.113Z,97131.76
2018-07-20T04:29:26.795Z,97130.45
2018-07-20T04:31:55.336Z,97131.12
2018-07-20T04:34:24.752Z,97133.74
2018-07-20T04:36:53.656Z,97135.92
2018-07-20T04:39:22.184Z,97133.02
2018-07-20T04:41:51.031Z,97134.51
2018-07-20T04:44:19.773Z,97132.30
2018-07-20T04:46:48.564Z,97132.33
2018-07-20T04:49:17.199Z,97124.34
2018-07-20T04:51:46.036Z,97125.23
2018-07-20T04:54:14.576Z,97129.67
2018-07-20T04:56:43.411Z,97136.64
2018-07-20T04:59:12.065Z,97131.03
2018-07-20T05:04:19.834Z,97129.63
2018-07-20T05:06:48.588Z,97135.67
2018-07-20T05:09:17.107Z,97130.91
2018-07-20T05:11:45.683Z,97128.11
2018-07-20T05:14:14.242Z,97127.61
2018-07-20T05:16:42.756Z,97126.61
2018-07-20T05:19:11.774Z,97124.48
2018-07-20T05:21:40.332Z,97123.55
2018-07-20T05:24:08.915Z,97120.32
2018-07-20T05:26:37.795Z,97125.02
2018-07-20T05:29:06.603Z,97125.77
2018-07-20T05:31:35.134Z,97116.32
2018-07-20T05:34:03.708Z,97112.47
2018-07-20T05:36:32.232Z,97114.84
2018-07-20T05:39:00.787Z,97111.94
2018-07-20T05:41:29.351Z,97114.47
2018-07-20T05:43:58.247Z,97111.66
2018-07-20T05:46:26.784Z,97116.30
2018-07-20T05:48:55.680Z,97115.95
2018-07-20T05:51:24.203Z,97111.89
2018-07-20T05:53:52.741Z,97107.78
2018-07-20T05:56:21.459Z,97101.05
2018-07-20T05:58:49.988Z,97100.09
2018-07-20T06:01:18.535Z,97103.73
2018-07-20T06:03:47.235Z,97096.41
2018-07-20T06:06:16.080Z,97104.30
2018-07-20T06:08:44.607Z,97100.34
2018-07-20T06:11:13.306Z,97110.02
2018-07-20T06:13:41.860Z,97101.34
2018-07-20T06:16:10.387Z,97103.93
2018-07-20T06:18:38.935Z,97103.07
2018-07-20T06:21:07.916Z,97100.56
2018-07-20T06:23:36.736Z,97100.77
2018-07-20T06:26:05.376Z,97092.36
2018-07-20T06:28:33.906Z,97087.84
2018-07-20T06:31:02.415Z,97094.94
2018-07-20T06:33:30.984Z,97088.33
2018-07-20T06:35:59.527Z,97083.22
2018-07-20T06:38:28.067Z,97089.05
2018-07-20T06:40:56.719Z,97090.06
2018-07-20T06:43:25.248Z,97090.41
2018-07-20T06:45:53.781Z,97091.79
2018-07-20T06:48:22.330Z,97098.09
2018-07-20T06:50:50.845Z,97093.76
2018-07-20T06:53:19.743Z,97100.25
2018-07-20T06:55:48.351Z,97099.86
2018-07-20T06:58:16.857Z,97092.75
2018-07-20T07:00:45.391Z,97097.44
2018-07-20T07:03:14.343Z,97105.34
2018-07-20T07:05:42.863Z,97100.13
2018-07-20T07:08:11.384Z,97099.84
2018-07-20T07:10:39.950Z,97096.09
2018-07-20T07:13:08.483Z,97106.02
2018-07-20T07:15:37.039Z,97100.02
2018-07-20T07:18:05.996Z,97107.63
2018-07-20T07:20:34.507Z,97107.33
2018-07-20T07:23:03.033Z,97104.28
2018-07-20T07:25:31.576Z,97107.02
2018-07-20T07:28:02.112Z,97110.08
2018-07-20T07:30:30.679Z,97108.48
2018-07-20T07:32:59.223Z,97104.65
2018-07-20T07:35:27.823Z,97102.20
2018-07-20T07:37:56.355Z,97104.44
2018-07-20T07:40:24.863Z,97100.31
2018-07-20T07:42:53.513Z,97098.81
2018-07-20T07:45:22.161Z,97103.31
2018-07-20T07:47:50.675Z,97103.97
2018-07-20T07:50:19.191Z,97106.37
2018-07-20T07:52:48.082Z,97101.16
2018-07-20T07:55:16.615Z,97099.53
2018-07-20T07:57:45.146Z,97091.80
2018-07-20T08:00:13.723Z,97089.86
2018-07-20T08:02:42.251Z,97098.56
2018-07-20T08:05:10.772Z,97096.09
2018-07-20T08:07:39.381Z,97093.75
2018-07-20T08:10:08.058Z,97101.56
2018-07-20T08:12:36.447Z,97094.25
2018-07-20T08:15:05.748Z,97097.09
2018-07-20T08:17:34.272Z,97096.83
2018-07-20T08:20:02.864Z,97098.02
2018-07-20T08:22:31.588Z,97094.16
2018-07-20T08:25:00.380Z,97091.06
2018-07-20T08:27:28.914Z,97086.68
2018-07-20T08:29:57.484Z,97082.92
2018-07-20T08:32:26.011Z,97085.46
2018-07-20T08:34:54.531Z,97083.94
2018-07-20T08:37:23.510Z,97085.32
2018-07-20T08:39:52.063Z,97082.44
2018-07-20T08:42:20.591Z,97078.41
2018-07-20T08:44:49.200Z,97080.79
2018-07-20T08:47:17.802Z,97080.09
2018-07-20T08:49:48.645Z,97073.75
2018-07-20T08:52:17.447Z,97071.93
2018-07-20T08:54:46.063Z,97071.91
2018-07-20T08:57:14.875Z,97072.66
2018-07-20T08:59:43.487Z,97073.41
2018-07-20T09:02:12.206Z,97075.59
2018-07-20T09:04:40.842Z,97066.48
2018-07-20T09:07:09.507Z,97069.14
2018-07-20T09:09:38.113Z,97063.38
2018-07-20T09:12:06.625Z,97063.52
2018-07-20T09:14:35.611Z,97056.45
2018-07-20T09:17:04.150Z,97055.30
2018-07-20T09:19:32.680Z,97065.41
2018-07-20T09:22:01.302Z,97054.64
2018-07-20T09:24:29.822Z,97058.18
2018-07-20T09:26:58.447Z,97060.75
2018-07-20T09:29:27.383Z,97063.97
2018-07-20T09:31:55.995Z,97069.24
2018-07-20T09:34:24.929Z,97059.80
2018-07-20T09:36:53.625Z,97064.98
2018-07-20T09:39:22.142Z,97062.23
2018-07-20T09:41:50.659Z,97066.05
2018-07-20T09:44:19.215Z,97066.11
2018-07-20T09:46:48.656Z,97060.94
2018-07-20T09:49:17.179Z,97064.00
2018-07-20T09:51:45.728Z,97061.47
2018-07-20T09:54:14.288Z,97071.59
2018-07-20T09:56:42.842Z,97068.78
2018-07-20T09:59:11.390Z,97067.97
2018-07-20T10:01:39.918Z,97059.61
2018-07-20T10:04:08.475Z,97064.27
2018-07-20T10:06:37.455Z,97062.03
2018-07-20T10:09:09.546Z,97061.13
2018-07-20T10:11:38.653Z,97052.64
2018-07-20T10:14:07.492Z,97061.41
2018-07-20T10:16:36.292Z,97054.45
2018-07-20T10:19:05.059Z,97054.80
2018-07-20T10:21:33.568Z,97052.57
2018-07-20T10:24:02.297Z,97052.48
2018-07-20T10:26:31.081Z,97042.95
2018-07-20T10:29:00.131Z,97040.27
2018-07-20T10:31:28.708Z,97030.83
2018-07-20T10:33:57.600Z,97033.38
2018-07-20T10:36:26.371Z,97034.08
2018-07-20T10:38:54.904Z,97028.92
2018-07-20T10:41:23.534Z,97032.19
2018-07-20T10:43:52.071Z,97025.90
2018-07-20T10:46:20.611Z,97027.38
2018-07-20T10:48:49.675Z,97019.97
2018-07-20T10:51:18.352Z,97027.73
2018-07-20T10:53:46.846Z,97024.74
2018-07-20T10:56:15.443Z,97023.52
2018-07-20T10:58:43.979Z,97017.45
2018-07-20T11:01:12.483Z,97016.96
2018-07-20T11:03:41.184Z,97010.89
2018-07-20T11:06:09.703Z,97010.61
2018-07-20T11:08:38.351Z,97006.31
2018-07-20T11:11:07.996Z,97009.44
2018-07-20T11:13:36.565Z,97010.28
2018-07-20T11:16:05.347Z,97007.88
2018-07-20T11:18:33.922Z,96999.65
2018-07-20T11:21:02.672Z,97002.75
2018-07-20T11:23:31.327Z,96992.11
2018-07-20T11:26:00.167Z,97002.95
2018-07-20T11:28:28.865Z,96995.41
2018-07-20T11:30:57.459Z,96999.42
2018-07-20T11:33:26.120Z,96997.97
2018-07-20T11:35:54.676Z,96992.53
2018-07-20T11:38:23.941Z,96995.73
2018-07-20T11:40:53.655Z,97000.08
2018-07-20T11:43:22.257Z,96989.25
2018-07-20T11:45:51.378Z,96992.83
2018-07-20T11:48:20.662Z,96981.83
2018-07-20T11:50:49.359Z,96980.52
2018-07-20T11:53:17.941Z,96984.54
2018-07-20T11:55:46.814Z,96985.95
2018-07-20T11:58:15.358Z,96979.16
2018-07-20T12:00:43.895Z,96974.23
2018-07-20T12:03:12.430Z,96976.85
2018-07-20T12:05:41.183Z,96975.91
2018-07-20T12:08:09.711Z,96973.91
2018-07-20T12:10:38.535Z,96968.46
2018-07-20T12:13:07.251Z,96970.88
2018-07-20T12:15:36.514Z,96961.27
2018-07-20T12:18:06.198Z,96959.92
2018-07-20T12:20:35.168Z,96955.78
2018-07-20T12:23:04.458Z,96960.84
2018-07-20T12:25:33.925Z,96961.48
2018-07-20T12:28:03.627Z,96948.67
2018-07-20T12:30:32.384Z,96952.97
2018-07-20T12:33:01.262Z,96947.58
2018-07-20T12:35:29.915Z,96946.45
2018-07-20T12:37:59.196Z,96943.15
2018-07-20T12:40:28.365Z,96952.73
2018-07-20T12:42:56.919Z,96939.47
2018-07-20T12:45:25.479Z,96937.47
2018-07-20T12:47:54.686Z,96931.63
2018-07-20T12:50:23.911Z,96927.09
2018-07-20T12:52:52.520Z,96923.05
2018-07-20T12:55:21.196Z,96930.37
2018-07-20T12:57:50.227Z,96924.00
2018-07-20T13:00:18.811Z,96916.45
2018-07-20T13:02:47.355Z,96915.00
2018-07-20T13:05:15.867Z,96911.45
2018-07-20T13:07:44.420Z,96920.09
2018-07-20T13:10:12.997Z,96910.27
2018-07-20T13:12:41.544Z,96914.73
2018-07-20T13:15:10.232Z,96910.14
2018-07-20T13:17:38.850Z,96914.72
2018-07-20T13:20:07.845Z,96903.70
2018-07-20T13:22:37.138Z,96901.66
2018-07-20T13:25:06.088Z,96900.39
2018-07-20T13:27:34.788Z,96897.12
2018-07-20T13:30:03.763Z,96892.50
2018-07-20T13:32:33.232Z,96897.55
2018-07-20T13:35:02.038Z,96897.58
2018-07-20T13:37:30.569Z,96898.20
2018-07-20T13:39:59.215Z,96901.09
2018-07-20T13:45:18.477Z,96901.50
2018-07-20T13:47:47.023Z,96903.02
2018-07-20T13:50:15.570Z,96897.31
2018-07-20T13:52:44.437Z,96898.73
2018-07-20T13:55:12.987Z,96900.09
2018-07-20T13:57:41.932Z,96907.03
2018-07-20T14:00:10.836Z,96894.34
2018-07-20T14:02:39.368Z,96886.97
2018-07-20T14:05:07.971Z,96892.72
2018-07-20T14:07:36.732Z,96890.49
2018-07-20T14:10:05.755Z,96889.48
2018-07-20T14:12:34.327Z,96893.30
2018-07-20T14:15:02.966Z,96893.25
2018-07-20T14:17:31.591Z,96886.97
2018-07-20T14:20:00.239Z,96886.75
2018-07-20T14:22:29.151Z,96882.78
2018-07-20T14:24:57.778Z,96873.47
2018-07-20T14:27:26.345Z,96879.11
2018-07-20T14:29:55.059Z,96875.73
2018-07-20T14:32:23.635Z,96872.94
2018-07-20T14:34:52.321Z,96866.27
2018-07-20T14:37:20.936Z,96864.23
2018-07-20T14:39:49.577Z,96868.92
2018-07-20T14:42:18.268Z,96868.33
2018-07-20T14:44:47.340Z,96861.02
2018-07-20T14:47:15.856Z,96858.33
2018-07-20T14:49:44.396Z,96859.18
2018-07-20T14:52:12.968Z,96848.08
2018-07-20T14:54:41.535Z,96847.32
2018-07-20T14:57:10.077Z,96856.84
2018-07-20T14:59:38.772Z,96844.55
2018-07-20T15:02:07.324Z,96840.66
2018-07-20T15:04:35.851Z,96838.34
2018-07-20T15:07:04.485Z,96839.89
2018-07-20T15:09:33.011Z,96835.03
2018-07-20T15:12:01.580Z,96835.33
2018-07-20T15:14:30.211Z,96834.52
2018-07-20T15:16:58.780Z,96839.78
2018-07-20T15:19:27.687Z,96854.38
2018-07-20T15:21:56.424Z,96855.69
2018-07-20T15:24:24.941Z,96854.61
2018-07-20T15:26:53.471Z,96855.48
2018-07-20T15:29:22.103Z,96858.34
2018-07-20T15:31:50.645Z,96855.91
2018-07-20T15:34:19.240Z,96848.78
2018-07-20T15:36:48.176Z,96859.73
2018-07-20T15:39:16.736Z,96855.49
2018-07-20T15:41:46.032Z,96858.54
2018-07-20T15:44:15.162Z,96863.63
2018-07-20T15:46:44.005Z,96872.51
2018-07-20T15:49:13.121Z,96867.55
2018-07-20T15:53:35.343Z,96877.52
2018-07-20T15:54:10.490Z,96875.87
2018-07-20T15:56:39.319Z,96876.25
2018-07-20T15:59:08.276Z,96870.72
2018-07-20T16:01:37.099Z,96873.48
2018-07-20T16:04:05.812Z,96871.49
2018-07-20T16:06:34.579Z,96877.16
2018-07-20T16:09:04.047Z,96878.61
2018-07-20T16:11:32.655Z,96881.63
2018-07-20T16:14:01.273Z,96881.02
2018-07-20T16:16:29.983Z,96878.12
2018-07-20T16:18:58.529Z,96878.88
2018-07-20T16:21:27.344Z,96871.01
2018-07-20T16:23:55.988Z,96864.56
2018-07-20T16:26:24.677Z,96870.82
2018-07-20T16:28:53.729Z,96868.19
2018-07-20T16:31:22.419Z,96862.64
2018-07-20T16:33:50.967Z,96864.17
2018-07-20T16:36:19.782Z,96862.31
2018-07-20T16:38:48.311Z,96858.63
2018-07-20T16:41:16.914Z,96857.75
2018-07-20T16:43:45.786Z,96851.88
2018-07-20T16:46:15.264Z,96861.32
2018-07-20T16:48:43.806Z,96858.59
2018-07-20T16:51:12.570Z,96865.07
2018-07-20T16:53:41.100Z,96866.88
2018-07-20T16:56:09.635Z,96862.20
2018-07-20T16:58:38.472Z,96875.56
2018-07-20T17:01:07.092Z,96873.86
2018-07-20T17:03:36.132Z,96869.97
2018-07-20T17:06:05.147Z,96875.59
2018-07-20T17:08:33.770Z,96880.78
2018-07-20T17:11:02.368Z,96878.98
2018-07-20T17:13:31.008Z,96885.27
2018-07-20T17:15:59.555Z,96884.13
2018-07-20T17:18:28.151Z,96882.78
2018-07-20T17:20:56.792Z,96888.55
2018-07-20T17:23:25.399Z,96887.76
2018-07-20T17:25:53.931Z,96881.59
2018-07-20T17:28:22.633Z,96888.39
2018-07-20T17:30:51.158Z,96894.05
2018-07-20T17:33:19.741Z,96885.45
2018-07-20T17:35:48.455Z,96892.11
2018-07-20T17:38:17.510Z,96886.27
2018-07-20T17:40:46.329Z,96891.34
2018-07-20T17:43:15.098Z,96901.34
2018-07-20T17:45:43.671Z,96899.99
2018-07-20T17:48:12.199Z,96904.83
2018-07-20T17:50:41.092Z,96905.56
2018-07-20T17:53:09.626Z,96905.29
2018-07-20T17:55:38.218Z,96901.31
2018-07-20T17:58:07.283Z,96903.83
2018-07-20T18:00:36.316Z,96906.59
2018-07-20T18:03:04.883Z,96907.00
2018-07-20T18:05:33.860Z,96906.63
2018-07-20T18:08:02.830Z,96909.62
2018-07-20T18:10:31.472Z,96902.73
2018-07-20T18:13:00.119Z,96907.20
2018-07-20T18:15:28.675Z,96900.38
2018-07-20T18:17:57.303Z,96907.16
2018-07-20T18:20:25.897Z,96904.14
2018-07-20T18:22:54.423Z,96899.22
2018-07-20T18:25:22.987Z,96900.86
2018-07-20T18:27:51.591Z,96902.94
2018-07-20T18:30:20.168Z,96903.75
2018-07-20T18:32:48.764Z,96901.90
2018-07-20T18:35:17.836Z,96899.27
2018-07-20T18:37:46.355Z,96898.25
2018-07-20T18:40:14.887Z,96893.23
2018-07-20T18:42:43.951Z,96896.25
2018-07-20T18:45:12.475Z,96891.96
2018-07-20T18:47:41.016Z,96886.27
2018-07-20T18:50:10.535Z,96883.38
2018-07-20T18:52:39.189Z,96878.42
2018-07-20T18:55:08.067Z,96880.73
2018-07-20T18:57:36.721Z,96881.01
2018-07-20T19:00:05.780Z,96869.27
2018-07-20T19:02:34.329Z,96871.67
2018-07-20T19:05:03.488Z,96870.80
2018-07-20T19:07:32.272Z,96865.42
2018-07-20T19:10:01.073Z,96866.03
2018-07-20T19:12:29.672Z,96857.77
2018-07-20T19:14:58.328Z,96847.22
2018-07-20T19:17:27.256Z,96850.08
2018-07-20T19:19:56.314Z,96848.99
2018-07-20T19:22:24.956Z,96845.52
2018-07-20T19:24:53.481Z,96849.41
2018-07-20T19:27:22.064Z,96839.20
2018-07-20T19:29:50.608Z,96825.89
2018-07-20T19:32:19.129Z,96832.91
2018-07-20T19:34:47.708Z,96846.29
2018-07-20T19:37:16.336Z,96842.83
2018-07-20T19:39:45.024Z,96832.31
2018-07-20T19:42:13.794Z,96844.99
2018-07-20T19:44:42.457Z,96843.24
2018-07-20T19:47:11.159Z,96838.86
2018-07-20T19:49:39.878Z,96840.41
2018-07-20T19:54:58.729Z,96848.72
2018-07-20T19:57:27.522Z,96847.34
2018-07-20T19:59:56.079Z,96848.78
2018-07-20T20:02:24.847Z,96850.94
2018-07-20T20:04:53.470Z,96841.26
2018-07-20T20:07:22.350Z,96842.70
2018-07-20T20:09:50.902Z,96851.30
2018-07-20T20:12:19.551Z,96854.11
2018-07-20T20:14:48.356Z,96849.28
2018-07-20T20:17:17.304Z,96856.75
2018-07-20T20:19:45.943Z,96866.33
2018-07-20T20:22:14.908Z,96869.39
2018-07-20T20:24:43.584Z,96866.86
2018-07-20T20:27:12.522Z,96859.27
2018-07-20T20:29:41.372Z,96858.34
2018-07-20T20:32:10.399Z,96858.79
2018-07-20T20:34:39.368Z,96856.13
2018-07-20T20:37:08.182Z,96850.59
2018-07-20T20:39:36.927Z,96844.55
2018-07-20T20:42:06.202Z,96842.36
2018-07-20T20:44:34.772Z,96836.59
2018-07-20T20:47:03.400Z,96842.41
2018-07-20T20:49:31.932Z,96841.93
2018-07-20T20:52:00.484Z,96841.65
2018-07-20T20:54:29.902Z,96841.91
2018-07-20T20:56:59.040Z,96840.14
2018-07-20T20:59:27.576Z,96831.68
2018-07-20T21:01:56.174Z,96832.09
2018-07-20T21:04:24.792Z,96831.40
2018-07-20T21:06:53.493Z,96832.88
2018-07-20T21:09:22.415Z,96832.44
2018-07-20T21:11:51.095Z,96829.06
2018-07-20T21:14:19.792Z,96829.95
2018-07-20T21:16:48.512Z,96827.54
2018-07-20T21:19:17.299Z,96823.55
2018-07-20T21:21:46.187Z,96821.28
2018-07-20T21:24:14.881Z,96817.02
2018-07-20T21:26:43.532Z,96810.71
2018-07-20T21:29:12.142Z,96814.24
2018-07-20T21:31:41.358Z,96811.94
2018-07-20T21:34:10.388Z,96806.05
2018-07-20T21:36:39.553Z,96809.20
2018-07-20T21:39:11.027Z,96814.85
2018-07-20T21:41:39.807Z,96826.73
2018-07-20T21:44:08.685Z,96819.54
2018-07-20T21:46:37.329Z,96822.70
2018-07-20T21:49:05.869Z,96820.31
2018-07-20T21:51:34.505Z,96819.50
2018-07-20T21:54:03.241Z,96820.53
2018-07-20T21:56:31.779Z,96833.34
2018-07-20T21:59:00.311Z,96835.80
2018-07-20T22:01:29.410Z,96845.11
2018-07-20T22:03:58.233Z,96850.88
2018-07-20T22:06:26.808Z,96845.67
2018-07-20T22:08:55.372Z,96847.28
2018-07-20T22:11:23.903Z,96842.06
2018-07-20T22:13:53.342Z,96845.99
2018-07-20T22:16:22.054Z,96853.00
2018-07-20T22:18:50.623Z,96851.69
2018-07-20T22:21:19.175Z,96850.86
2018-07-20T22:23:47.751Z,96855.82
2018-07-20T22:26:16.288Z,96864.47
2018-07-20T22:28:44.814Z,96859.97
2018-07-20T22:31:13.407Z,96862.48
2018-07-20T22:33:41.945Z,96857.62
2018-07-20T22:36:10.515Z,96852.04
2018-07-20T22:38:45.191Z,96849.89
2018-07-20T22:41:13.736Z,96857.05
2018-07-20T22:43:42.254Z,96855.02
2018-07-20T22:46:11.135Z,96867.64
2018-07-20T22:48:40.068Z,96854.83
2018-07-20T22:51:09.574Z,96855.97
2018-07-20T22:53:38.162Z,96852.02
2018-07-20T22:56:06.734Z,96854.55
2018-07-20T22:58:35.259Z,96857.12
2018-07-20T23:01:04.772Z,96859.63
2018-07-20T23:03:33.489Z,96865.60
2018-07-20T23:06:02.044Z,96863.77
2018-07-20T23:08:30.732Z,96870.63
2018-07-20T23:10:59.377Z,96875.38
2018-07-20T23:13:28.097Z,96866.63
2018-07-20T23:15:58.302Z,96872.06
2018-07-20T23:18:27.156Z,96866.14
2018-07-20T23:20:56.754Z,96869.27
2018-07-20T23:23:43.341Z,96868.94
2018-07-20T23:26:11.928Z,96865.27
2018-07-20T23:28:41.061Z,96867.25
2018-07-20T23:31:09.731Z,96861.19
2018-07-20T23:33:38.295Z,96863.45
2018-07-20T23:36:07.036Z,96860.91
2018-07-20T23:38:35.971Z,96853.53
2018-07-20T23:41:04.620Z,96849.81
2018-07-20T23:43:33.459Z,96857.05
2018-07-20T23:46:02.064Z,96854.14
2018-07-20T23:48:30.643Z,96846.48
2018-07-20T23:50:59.340Z,96852.44
2018-07-20T23:53:28.176Z,96849.28
2018-07-20T23:55:56.739Z,96838.27
2018-07-20T23:58:25.328Z,96831.22
